Time;durP1;ratioP1;P1;durP2;ratioP2;P2;SDS_P1;SDS_P2;PMS_P1;PMS_P2;Temp;Humidity;BMP_temperature;BMP_pressure;BME280_temperature;BME280_humidity;BME280_pressure;Samples;Min_cycle;Max_cycle;Signal;HPM_P1;HPM_P2
2022/01/18 00:01:53;;;;;;;10.35;2.40;;;;;;;1.51;71.54;101398.88;5009389;28;20079;-69
2022/01/18 00:04:20;;;;;;;6.40;2.30;;;;;;;1.62;70.87;101404.66;5021876;28;20029;-69
2022/01/18 00:06:50;;;;;;;7.88;2.38;;;;;;;1.53;71.31;101399.69;5023658;28;20759;-68
2022/01/18 00:09:20;;;;;;;6.20;2.10;;;;;;;1.39;71.61;101409.00;5012035;28;20049;-69
2022/01/18 00:11:54;;;;;;;7.03;2.35;;;;;;;1.41;71.42;101418.59;5020711;28;20061;-68
2022/01/18 00:14:26;;;;;;;6.60;2.35;;;;;;;1.45;71.21;101422.88;5013997;28;20030;-68
2022/01/18 00:17:06;;;;;;;8.77;2.53;;;;;;;1.45;70.51;101424.66;5020656;27;20132;-68
2022/01/18 00:19:34;;;;;;;7.28;2.70;;;;;;;1.36;70.94;101440.81;5019654;28;20069;-68
2022/01/18 00:24:28;;;;;;;6.30;2.38;;;;;;;1.32;71.10;101457.69;5029228;28;20096;-68
2022/01/18 00:26:53;;;;;;;10.07;2.03;;;;;;;1.29;71.12;101469.19;5057731;27;20070;-66
2022/01/18 00:29:22;;;;;;;8.75;2.40;;;;;;;1.23;70.73;101472.03;5008646;27;20044;-66
2022/01/18 00:32:07;;;;;;;9.75;2.53;;;;;;;1.30;70.61;101481.53;5022657;28;20108;-66
2022/01/18 00:34:36;;;;;;;8.98;2.20;;;;;;;1.23;70.89;101479.13;5009778;28;20418;-66
2022/01/18 00:39:40;;;;;;;5.88;2.08;;;;;;;1.21;70.41;101484.44;5028114;28;20485;-66
2022/01/18 00:42:07;;;;;;;6.20;2.30;;;;;;;1.19;71.04;101510.03;5022018;28;20079;-66
2022/01/18 00:44:33;;;;;;;9.05;2.67;;;;;;;1.13;71.43;101499.66;5021533;28;20069;-66
2022/01/18 00:46:59;;;;;;;4.43;2.00;;;;;;;1.11;71.21;101508.53;5014447;28;20052;-68
2022/01/18 00:49:24;;;;;;;5.85;2.30;;;;;;;1.11;71.46;101509.41;5012794;28;21551;-68
2022/01/18 00:51:55;;;;;;;8.93;1.92;;;;;;;1.05;71.42;101511.38;5011027;28;20045;-68
2022/01/18 00:54:24;;;;;;;6.80;2.97;;;;;;;1.01;71.28;101510.63;5010234;28;20021;-68
2022/01/18 00:56:52;;;;;;;7.15;1.95;;;;;;;1.01;71.40;101526.47;5010204;28;20037;-68
2022/01/18 00:59:19;;;;;;;12.00;2.85;;;;;;;0.99;71.35;101522.97;5009267;28;20034;-68
2022/01/18 01:01:44;;;;;;;7.68;2.30;;;;;;;0.98;70.86;101517.75;5009810;28;22013;-68
2022/01/18 01:04:10;;;;;;;8.90;2.20;;;;;;;1.16;69.82;101525.97;5007173;28;20074;-68
2022/01/18 01:06:36;;;;;;;6.32;2.00;;;;;;;1.08;69.99;101517.44;5014807;28;20029;-68
2022/01/18 01:09:03;;;;;;;6.68;2.10;;;;;;;1.18;70.24;101534.75;5014907;28;20038;-68
2022/01/18 01:11:29;;;;;;;7.97;2.75;;;;;;;1.25;69.50;101543.31;5018693;28;20037;-68
2022/01/18 01:13:59;;;;;;;9.48;2.00;;;;;;;1.21;69.77;101561.06;5015953;28;20498;-68
2022/01/18 01:35:12;;;;;;;6.90;1.83;;;;;;;1.18;70.02;101563.81;5017248;28;20041;-66
2022/01/18 01:43:28;;;;;;;6.53;2.37;;;;;;;1.18;69.99;101558.50;5012148;28;19981;-66
2022/01/18 01:45:54;;;;;;;6.10;2.25;;;;;;;1.16;69.74;101557.69;5011972;28;20026;-66
2022/01/18 01:48:22;;;;;;;10.57;2.75;;;;;;;1.17;69.34;101564.72;5012234;28;20071;-69
2022/01/18 01:50:53;;;;;;;8.90;2.60;;;;;;;1.15;69.33;101561.25;5014576;28;20030;-68
2022/01/18 01:53:20;;;;;;;11.00;2.55;;;;;;;1.11;69.68;101554.31;5013554;28;20440;-68
2022/01/18 01:55:47;;;;;;;7.40;2.45;;;;;;;1.14;69.23;101563.94;5009721;28;20033;-68
2022/01/18 01:58:12;;;;;;;8.93;2.50;;;;;;;1.11;69.49;101566.66;5013956;28;20547;-68
2022/01/18 02:00:47;;;;;;;6.03;2.75;;;;;;;1.14;69.74;101567.44;5019918;28;20025;-68
2022/01/18 02:03:14;;;;;;;10.38;3.05;;;;;;;1.14;69.28;101571.84;5009197;27;20033;-68
2022/01/18 02:05:40;;;;;;;6.47;2.42;;;;;;;1.13;69.26;101578.91;5011697;28;20025;-68
2022/01/18 02:08:07;;;;;;;13.48;3.47;;;;;;;1.15;68.84;101582.38;5013540;28;20037;-68
2022/01/18 02:10:37;;;;;;;7.15;2.20;;;;;;;1.09;69.14;101565.81;5016437;28;20053;-68
2022/01/18 02:13:07;;;;;;;4.88;1.83;;;;;;;1.08;69.19;101572.91;5016648;28;20056;-68
2022/01/18 02:15:38;;;;;;;9.88;2.55;;;;;;;1.15;68.89;101577.09;5039067;27;20029;-68
2022/01/18 02:23:31;;;;;;;8.63;2.72;;;;;;;1.00;69.49;101579.31;5019956;28;20060;-68
2022/01/18 02:25:57;;;;;;;7.07;2.35;;;;;;;0.81;69.61;101563.13;5017526;28;20042;-68
2022/01/18 02:28:26;;;;;;;6.55;2.03;;;;;;;0.86;69.96;101592.91;5012142;28;20030;-68
2022/01/18 02:30:52;;;;;;;8.68;2.60;;;;;;;0.89;69.78;101595.47;5014814;28;20477;-68
2022/01/18 02:33:17;;;;;;;11.18;3.28;;;;;;;0.89;69.90;101598.09;5029168;27;20027;-68
2022/01/18 02:35:45;;;;;;;6.13;2.55;;;;;;;0.84;69.97;101588.59;5033350;27;20025;-68
2022/01/18 02:38:10;;;;;;;8.23;3.40;;;;;;;0.82;70.06;101590.41;5018882;28;20738;-68
2022/01/18 02:40:36;;;;;;;10.18;3.10;;;;;;;0.74;70.50;101579.19;5012442;28;20033;-65
2022/01/18 02:43:46;;;;;;;7.55;2.50;;;;;;;0.82;70.06;101604.47;5012656;28;20045;-66
2022/01/18 02:45:52;;;;;;;8.50;3.40;;;;;;;0.78;70.09;101602.84;5023464;28;20036;-66
2022/01/18 02:48:18;;;;;;;6.15;2.15;;;;;;;0.71;70.44;101609.16;5014904;27;20029;-66
2022/01/18 02:50:44;;;;;;;6.15;2.20;;;;;;;0.71;70.88;101621.53;5017768;28;20147;-67
2022/01/18 02:53:09;;;;;;;5.85;1.92;;;;;;;0.65;71.01;101633.13;5016555;28;20038;-65
2022/01/18 02:55:35;;;;;;;11.15;2.33;;;;;;;0.57;70.96;101628.91;5011575;28;20033;-66
2022/01/18 02:58:08;;;;;;;9.77;2.92;;;;;;;0.61;71.02;101639.34;5013532;28;20036;-66
2022/01/18 03:03:11;;;;;;;4.22;1.92;;;;;;;0.59;70.88;101643.84;5020184;28;20051;-66
2022/01/18 03:03:35;;;;;;;9.95;2.25;;;;;;;0.55;71.31;101633.38;5019261;27;20129;-66
2022/01/18 03:06:02;;;;;;;8.50;2.42;;;;;;;0.54;71.13;101652.78;5051101;27;20509;-66
2022/01/18 03:08:29;;;;;;;5.47;1.90;;;;;;;0.41;71.36;101640.78;5013569;28;20037;-67
2022/01/18 03:10:56;;;;;;;3.47;1.77;;;;;;;0.43;71.61;101653.03;5022409;27;20040;-68
2022/01/18 03:13:22;;;;;;;9.57;2.00;;;;;;;0.40;72.09;101655.75;5015790;28;20137;-68
2022/01/18 03:15:48;;;;;;;8.60;2.72;;;;;;;0.36;71.86;101662.03;5021668;28;20490;-68
2022/01/18 03:18:13;;;;;;;7.00;2.30;;;;;;;0.29;72.07;101670.13;5024765;28;20032;-68
2022/01/18 03:20:39;;;;;;;10.65;2.53;;;;;;;0.27;72.23;101667.53;5016250;27;20053;-68
2022/01/18 03:23:10;;;;;;;5.38;2.10;;;;;;;0.25;72.55;101664.03;5064314;27;20033;-68
2022/01/18 03:28:07;;;;;;;13.13;2.67;;;;;;;0.15;73.18;101651.97;5023161;27;20045;-68
2022/01/18 03:30:39;;;;;;;11.27;2.65;;;;;;;0.17;73.08;101659.84;5024985;28;20068;-68
2022/01/18 03:33:07;;;;;;;7.15;2.50;;;;;;;0.18;72.95;101673.00;5054566;27;20549;-68
2022/01/18 03:35:33;;;;;;;8.38;2.67;;;;;;;0.18;73.19;101674.78;5011184;28;20061;-68
2022/01/18 03:37:59;;;;;;;13.05;3.33;;;;;;;0.22;73.05;101669.38;5033210;27;20049;-68
2022/01/18 03:40:24;;;;;;;11.68;3.30;;;;;;;0.21;72.75;101658.88;5024480;28;20037;-68
2022/01/18 03:42:51;;;;;;;9.13;4.10;;;;;;;0.31;72.43;101668.28;5026438;27;20021;-68
2022/01/18 03:45:30;;;;;;;7.20;2.28;;;;;;;0.25;72.99;101666.69;5017467;28;20025;-68
2022/01/18 03:47:57;;;;;;;9.57;2.85;;;;;;;0.29;73.19;101665.69;5012125;28;20091;-68
2022/01/18 03:50:24;;;;;;;8.10;2.83;;;;;;;0.34;72.66;101674.38;5023097;27;20041;-68
2022/01/18 03:52:50;;;;;;;15.75;2.72;;;;;;;0.40;72.58;101666.31;5045104;27;20052;-68
2022/01/18 03:55:19;;;;;;;10.90;3.08;;;;;;;0.38;72.16;101659.34;5093055;27;20023;-68
2022/01/18 03:57:45;;;;;;;8.40;3.45;;;;;;;0.43;71.72;101663.59;5027678;28;20025;-68
2022/01/18 04:00:15;;;;;;;7.88;1.92;;;;;;;0.47;71.97;101681.09;5018975;28;20034;-68
2022/01/18 04:02:40;;;;;;;11.50;2.63;;;;;;;0.55;71.70;101676.47;5006799;28;20029;-68
2022/01/18 04:05:07;;;;;;;11.07;2.33;;;;;;;0.60;71.47;101685.16;5012218;28;20048;-68
2022/01/18 04:07:32;;;;;;;13.20;3.40;;;;;;;0.56;71.23;101680.84;5016761;28;20067;-68
2022/01/18 04:09:58;;;;;;;6.85;2.22;;;;;;;0.62;71.02;101680.72;5047124;27;20497;-68
2022/01/18 04:12:23;;;;;;;13.25;2.65;;;;;;;0.60;70.99;101684.28;5022744;28;20098;-68
2022/01/18 04:14:49;;;;;;;9.18;2.58;;;;;;;0.52;71.33;101671.28;5020502;28;20422;-68
2022/01/18 04:27:49;;;;;;;10.73;2.47;;;;;;;0.56;71.13;101696.69;5035914;27;20033;-68
2022/01/18 04:30:15;;;;;;;10.48;2.45;;;;;;;0.57;71.40;101705.47;5020600;28;20029;-68
2022/01/18 04:32:40;;;;;;;11.50;3.05;;;;;;;0.53;71.30;101685.34;5047490;27;20125;-68
2022/01/18 04:35:06;;;;;;;7.53;3.03;;;;;;;0.45;71.47;101695.22;5016989;28;20074;-68
2022/01/18 04:37:31;;;;;;;10.07;3.25;;;;;;;0.36;72.10;101709.53;5006838;28;20125;-68
2022/01/18 04:39:58;;;;;;;8.90;3.60;;;;;;;0.26;72.49;101704.50;5018612;28;20563;-68
2022/01/18 04:50:36;;;;;;;9.07;3.38;;;;;;;0.11;74.02;101718.91;5056365;27;20012;-68
2022/01/18 04:53:01;;;;;;;5.22;2.25;;;;;;;0.11;74.22;101720.66;5020419;28;20108;-68
2022/01/18 04:55:31;;;;;;;11.15;2.30;;;;;;;0.23;73.38;101718.63;5026214;28;20079;-68
2022/01/18 04:57:59;;;;;;;12.32;2.67;;;;;;;0.26;73.47;101734.38;5049229;28;20072;-68
2022/01/18 05:00:25;;;;;;;8.32;2.40;;;;;;;0.30;73.02;101728.13;5026409;28;20033;-68
2022/01/18 05:02:52;;;;;;;9.05;2.60;;;;;;;0.29;73.10;101744.00;5044791;28;20021;-68
2022/01/18 05:05:31;;;;;;;12.20;3.17;;;;;;;0.26;73.36;101738.78;5017042;28;20061;-68
2022/01/18 05:08:00;;;;;;;13.50;2.92;;;;;;;0.27;73.11;101749.31;5016384;28;20022;-68
2022/01/18 05:10:29;;;;;;;11.20;2.78;;;;;;;0.17;73.77;101745.16;5010623;28;20038;-68
2022/01/18 05:12:57;;;;;;;9.05;2.47;;;;;;;0.19;73.64;101753.03;5009112;28;20029;-68
2022/01/18 05:23:16;;;;;;;16.52;3.92;;;;;;;0.12;73.86;101744.38;5054588;28;20054;-65
2022/01/18 05:25:45;;;;;;;11.02;3.60;;;;;;;0.14;73.86;101762.78;5061718;27;20018;-66
2022/01/18 05:28:11;;;;;;;16.25;3.58;;;;;;;0.09;74.19;101762.91;5022245;28;20396;-66
2022/01/18 05:30:37;;;;;;;13.20;4.95;;;;;;;0.04;74.20;101759.50;5010121;28;20117;-66
2022/01/18 05:33:02;;;;;;;15.70;5.00;;;;;;;0.01;74.61;101759.56;5041940;28;20029;-66
2022/01/18 05:35:28;;;;;;;10.15;4.35;;;;;;;0.00;74.68;101760.50;5061356;28;20478;-66
2022/01/18 05:37:53;;;;;;;13.05;5.88;;;;;;;-0.04;75.23;101756.16;5012527;28;20029;-66
2022/01/18 05:40:20;;;;;;;19.77;5.75;;;;;;;-0.08;74.96;101757.13;5073316;28;20027;-65
2022/01/18 05:42:46;;;;;;;13.70;4.57;;;;;;;-0.10;74.93;101762.44;5054231;28;20456;-66
2022/01/18 05:45:12;;;;;;;10.43;4.38;;;;;;;-0.08;75.04;101765.91;5018961;28;20057;-68
2022/01/18 05:47:40;;;;;;;15.68;5.07;;;;;;;-0.14;75.13;101763.41;5028103;28;20504;-68
2022/01/18 05:50:07;;;;;;;11.45;4.90;;;;;;;-0.17;75.54;101766.09;5081872;27;20070;-68
2022/01/18 05:52:33;;;;;;;11.57;4.35;;;;;;;-0.21;75.62;101767.06;5021485;28;20034;-68
2022/01/18 05:54:59;;;;;;;14.32;4.53;;;;;;;-0.22;75.76;101767.09;5039155;28;20033;-68
2022/01/18 05:57:25;;;;;;;11.23;3.88;;;;;;;-0.28;75.96;101767.22;5048314;28;20026;-68
2022/01/18 05:59:52;;;;;;;9.75;3.75;;;;;;;-0.29;76.11;101773.41;5014541;28;20037;-68
2022/01/18 06:02:31;;;;;;;11.55;3.67;;;;;;;-0.25;75.81;101775.06;5019496;28;20078;-68
2022/01/18 06:07:41;;;;;;;;;;;;;;;-0.31;76.24;101783.97;5032193;27;20120;-68
2022/01/18 06:10:07;;;;;;;10.05;3.15;;;;;;;-0.36;76.52;101790.22;5121536;27;20334;-68
2022/01/18 06:12:32;;;;;;;10.25;2.50;;;;;;;-0.39;76.81;101791.16;5039018;27;20039;-68
2022/01/18 06:14:58;;;;;;;10.25;2.60;;;;;;;-0.50;77.21;101779.97;5022036;28;20052;-66
2022/01/18 06:17:24;;;;;;;8.45;2.70;;;;;;;-0.47;77.43;101794.84;5015386;27;20037;-66
2022/01/18 06:19:49;;;;;;;22.10;3.75;;;;;;;-0.52;77.47;101786.16;5010908;28;20030;-66
2022/01/18 06:22:15;;;;;;;9.88;3.40;;;;;;;-0.52;77.74;101788.78;5019946;27;20029;-66
2022/01/18 06:24:40;;;;;;;11.18;3.17;;;;;;;-0.53;77.34;101782.66;5016314;27;20049;-66
2022/01/18 06:27:07;;;;;;;9.52;2.95;;;;;;;-0.52;77.54;101794.06;5041602;27;20037;-66
2022/01/18 06:29:32;;;;;;;14.00;3.90;;;;;;;-0.43;77.63;101793.88;5020101;28;20178;-66
2022/01/18 06:31:58;;;;;;;15.23;3.97;;;;;;;-0.37;77.47;101784.09;5031054;28;20128;-66
2022/01/18 06:34:23;;;;;;;16.88;5.10;;;;;;;-0.39;77.55;101792.91;5012602;28;20030;-67
2022/01/18 06:36:49;;;;;;;17.38;5.97;;;;;;;-0.48;78.04;101780.78;5017821;27;20047;-66
2022/01/18 06:39:16;;;;;;;11.90;4.80;;;;;;;-0.53;78.63;101765.97;5021830;27;20037;-66
2022/01/18 06:41:45;;;;;;;14.18;5.40;;;;;;;-0.44;78.24;101786.88;5010318;27;20104;-66
2022/01/18 06:44:11;;;;;;;22.20;4.53;;;;;;;-0.37;78.29;101780.59;5023929;28;20050;-65
2022/01/18 06:46:37;;;;;;;15.57;5.07;;;;;;;-0.33;78.05;101793.69;5026166;28;20485;-67
2022/01/18 06:49:02;;;;;;;15.05;5.75;;;;;;;-0.39;77.96;101780.63;5028285;28;20037;-66
2022/01/18 06:51:27;;;;;;;14.85;5.03;;;;;;;-0.43;78.79;101778.06;5022290;28;20029;-66
2022/01/18 06:53:53;;;;;;;12.88;5.22;;;;;;;-0.33;78.50;101805.97;5008529;28;20120;-68
2022/01/18 06:56:20;;;;;;;25.15;5.82;;;;;;;-0.30;78.59;101798.88;5013063;28;20102;-68
2022/01/18 06:58:46;;;;;;;12.90;4.70;;;;;;;-0.28;78.49;101809.41;5050829;27;20092;-68
2022/01/18 07:01:13;;;;;;;13.85;4.78;;;;;;;-0.28;78.64;101812.03;5085115;27;20111;-68
2022/01/18 07:03:39;;;;;;;22.70;5.50;;;;;;;-0.27;78.88;101819.03;5044576;27;20368;-68
2022/01/18 07:06:05;;;;;;;10.68;5.32;;;;;;;-0.22;78.45;101823.31;5048362;27;20033;-68
2022/01/18 07:08:31;;;;;;;17.08;6.05;;;;;;;-0.20;78.57;101812.75;5023314;28;20095;-68
2022/01/18 07:10:57;;;;;;;14.60;4.85;;;;;;;-0.19;78.72;101810.06;5085029;27;20093;-68
2022/01/18 07:13:23;;;;;;;23.05;5.53;;;;;;;-0.14;78.42;101805.59;5040618;27;20133;-68
2022/01/18 07:15:49;;;;;;;18.92;5.55;;;;;;;-0.09;78.50;101802.88;5018360;28;20497;-68
2022/01/18 07:18:14;;;;;;;11.30;3.97;;;;;;;-0.01;78.54;101811.47;5021622;28;20037;-68
2022/01/18 07:20:41;;;;;;;10.15;4.50;;;;;;;0.03;78.18;101814.91;5027244;28;20038;-68
2022/01/18 07:23:11;;;;;;;18.63;5.88;;;;;;;0.06;78.49;101817.50;5037084;27;20011;-68
2022/01/18 07:25:41;;;;;;;16.40;5.88;;;;;;;-0.01;78.83;101812.34;5026091;28;20104;-68
2022/01/18 07:28:07;;;;;;;14.30;6.05;;;;;;;0.02;79.08;101811.41;5023912;28;20158;-68
2022/01/18 07:30:32;;;;;;;13.63;5.70;;;;;;;0.04;79.13;101820.16;5026388;28;20026;-66
2022/01/18 07:32:57;;;;;;;10.07;5.35;;;;;;;0.10;79.08;101825.31;5022004;28;20116;-66
2022/01/18 07:35:25;;;;;;;15.57;5.30;;;;;;;0.28;78.00;101831.94;5043754;27;20107;-66
2022/01/18 07:37:51;;;;;;;21.08;6.60;;;;;;;0.23;78.57;101834.69;5026285;28;20061;-68
2022/01/18 07:40:16;;;;;;;18.88;5.30;;;;;;;0.23;78.74;101839.09;5036894;27;20116;-67
2022/01/18 07:42:42;;;;;;;11.57;4.43;;;;;;;0.36;78.45;101838.81;5009523;28;20731;-67
2022/01/18 07:45:08;;;;;;;12.50;4.22;;;;;;;0.45;78.43;101838.59;5073142;27;20561;-66
2022/01/18 07:47:33;;;;;;;10.68;3.58;;;;;;;0.52;77.80;101848.13;5034362;27;20376;-67
2022/01/18 07:49:59;;;;;;;11.90;3.35;;;;;;;0.52;78.15;101845.50;5027205;28;20037;-66
2022/01/18 07:52:24;;;;;;;8.38;3.50;;;;;;;0.53;78.19;101849.84;5035762;27;20025;-66
2022/01/18 07:54:50;;;;;;;13.80;3.67;;;;;;;0.49;78.86;101840.28;5084149;27;20027;-66
2022/01/18 07:57:16;;;;;;;11.63;3.47;;;;;;;0.59;78.57;101844.44;5123333;27;20038;-66
2022/01/18 07:59:41;;;;;;;9.38;3.22;;;;;;;0.72;78.23;101863.50;5018520;28;20034;-66
2022/01/18 08:02:07;;;;;;;11.25;3.40;;;;;;;0.72;78.24;101864.38;5007179;28;20034;-66
2022/01/18 08:04:32;;;;;;;7.45;3.10;;;;;;;0.73;78.60;101862.59;5010529;28;20036;-66
2022/01/18 08:06:58;;;;;;;12.77;3.30;;;;;;;0.79;78.63;101858.03;5024970;28;20041;-66
2022/01/18 08:09:23;;;;;;;12.68;3.35;;;;;;;0.87;78.71;101866.63;5025765;28;20028;-66
2022/01/18 08:11:51;;;;;;;11.48;3.30;;;;;;;1.02;77.88;101863.63;5012251;28;20029;-66
2022/01/18 08:14:18;;;;;;;14.13;3.25;;;;;;;1.08;77.44;101862.63;5022722;28;20082;-66
2022/01/18 08:16:59;;;;;;;11.93;2.83;;;;;;;1.19;77.31;101858.81;5019206;28;20026;-66
2022/01/18 08:19:26;;;;;;;8.93;2.72;;;;;;;1.22;77.38;101863.13;5007229;28;20055;-66
2022/01/18 08:21:51;;;;;;;11.27;2.88;;;;;;;1.21;76.93;101851.72;5013184;28;20068;-66
2022/01/18 08:24:16;;;;;;;8.63;3.38;;;;;;;1.31;76.58;101849.69;5033015;27;20474;-66
2022/01/18 08:26:42;;;;;;;6.45;3.03;;;;;;;1.43;75.12;101849.38;5023552;28;20076;-66
2022/01/18 08:29:08;;;;;;;15.43;4.13;;;;;;;1.49;74.35;101850.06;5029881;27;20037;-68
2022/01/18 08:31:34;;;;;;;7.90;2.50;;;;;;;1.55;74.48;101844.63;5020225;28;20032;-68
2022/01/18 08:33:59;;;;;;;12.30;2.95;;;;;;;1.61;74.61;101849.75;5021519;28;20434;-68
2022/01/18 08:36:25;;;;;;;15.10;4.07;;;;;;;1.73;74.26;101865.31;5022990;28;20111;-68
2022/01/18 08:38:52;;;;;;;12.45;3.97;;;;;;;1.75;74.62;101859.97;5021436;28;20431;-68
2022/01/18 08:41:17;;;;;;;9.55;3.20;;;;;;;1.79;73.99;101866.91;5024159;28;20022;-68
2022/01/18 08:43:43;;;;;;;10.60;2.92;;;;;;;1.90;73.83;101871.00;5013860;28;20505;-68
2022/01/18 08:46:08;;;;;;;17.35;4.68;;;;;;;1.97;74.31;101879.63;5005169;28;20093;-68
2022/01/18 08:48:35;;;;;;;16.52;4.43;;;;;;;2.02;73.83;101877.72;5006619;28;20030;-68
2022/01/18 08:51:00;;;;;;;16.88;4.05;;;;;;;2.13;73.38;101871.22;5041607;27;20028;-68
2022/01/18 08:53:26;;;;;;;9.93;3.33;;;;;;;2.17;73.19;101870.19;5020476;28;20108;-68
2022/01/18 08:55:53;;;;;;;9.77;3.35;;;;;;;2.06;73.47;101855.53;5021556;28;20076;-69
2022/01/18 08:58:21;;;;;;;11.32;3.72;;;;;;;2.23;73.65;101880.63;5022574;28;20025;-68
2022/01/18 09:00:47;;;;;;;16.52;4.68;;;;;;;2.25;73.49;101865.56;5049695;28;20078;-68
2022/01/18 09:03:12;;;;;;;12.02;3.45;;;;;;;2.32;73.28;101877.72;5021627;28;20493;-68
2022/01/18 09:05:38;;;;;;;15.90;4.25;;;;;;;2.43;72.13;101874.75;5048192;28;20030;-69
2022/01/18 09:08:07;;;;;;;12.50;4.03;;;;;;;2.35;72.54;101868.78;5020443;28;20037;-69
2022/01/18 09:10:33;;;;;;;10.98;3.50;;;;;;;2.38;72.53;101870.50;5042625;28;20113;-69
2022/01/18 09:12:58;;;;;;;14.60;3.30;;;;;;;2.42;72.45;101881.81;5019254;28;20037;-69
2022/01/18 09:15:25;;;;;;;13.50;3.53;;;;;;;2.63;71.74;101893.56;5021758;28;20052;-69
2022/01/18 09:17:52;;;;;;;15.40;3.35;;;;;;;2.81;69.70;101885.06;5014987;28;20110;-69
2022/01/18 09:20:18;;;;;;;16.20;4.25;;;;;;;2.70;70.18;101876.56;5008659;28;20029;-69
2022/01/18 09:22:45;;;;;;;9.95;3.35;;;;;;;2.75;69.99;101879.06;5010971;27;20033;-69
2022/01/18 09:25:16;;;;;;;14.77;3.92;;;;;;;2.82;69.94;101877.94;5013256;28;20491;-69
2022/01/18 09:27:41;;;;;;;15.10;3.80;;;;;;;2.90;69.27;101882.09;5018936;28;20044;-70
2022/01/18 09:30:07;;;;;;;12.20;4.07;;;;;;;2.89;68.82;101880.38;5021940;28;20035;-69
2022/01/18 09:32:33;;;;;;;14.73;4.03;;;;;;;2.88;68.39;101877.75;5014553;28;20479;-70
2022/01/18 09:34:59;;;;;;;11.77;4.35;;;;;;;2.97;67.68;101902.19;5020328;28;20018;-70
2022/01/18 09:37:24;;;;;;;7.63;3.50;;;;;;;3.02;67.43;101894.97;5020721;28;20174;-69
2022/01/18 09:39:52;;;;;;;16.25;5.00;;;;;;;2.96;67.96;101870.47;5021495;28;20086;-66
2022/01/18 09:42:20;;;;;;;19.10;4.28;;;;;;;3.49;64.87;101885.44;5022631;28;20029;-66
2022/01/18 09:44:47;;;;;;;10.95;3.42;;;;;;;3.36;65.72;101889.44;5022169;27;20393;-67
2022/01/18 09:47:13;;;;;;;15.63;4.07;;;;;;;3.32;65.57;101883.34;5025958;27;20374;-67
2022/01/18 09:49:38;;;;;;;11.15;3.53;;;;;;;3.42;64.80;101884.78;5057550;27;20076;-67
2022/01/18 09:52:04;;;;;;;16.85;4.25;;;;;;;3.41;64.47;101892.78;5048856;27;20064;-67
2022/01/18 09:54:30;;;;;;;13.52;4.13;;;;;;;3.44;64.93;101905.94;5025685;28;20731;-66
2022/01/18 09:56:56;;;;;;;14.68;3.70;;;;;;;3.46;65.14;101904.13;5043116;27;20040;-67
2022/01/18 09:59:22;;;;;;;12.52;4.25;;;;;;;3.52;64.34;101896.81;5025445;27;20067;-66
2022/01/18 10:01:48;;;;;;;9.77;3.47;;;;;;;3.67;63.15;101904.25;5027960;28;20033;-67
2022/01/18 10:04:22;;;;;;;11.88;3.75;;;;;;;3.72;63.04;101912.06;5025573;28;20029;-67
2022/01/18 10:06:54;;;;;;;15.60;3.65;;;;;;;3.73;63.39;101912.00;5024999;28;20716;-66
2022/01/18 10:09:20;;;;;;;26.95;4.25;;;;;;;3.75;62.91;101909.31;5029543;27;20033;-67
2022/01/18 10:12:05;;;;;;;18.23;4.28;;;;;;;3.91;61.71;101914.03;5030842;28;20491;-66
2022/01/18 10:14:32;;;;;;;31.02;4.68;;;;;;;3.90;61.39;101914.09;5032018;28;20033;-66
2022/01/18 10:16:58;;;;;;;13.07;3.63;;;;;;;3.93;61.09;101933.41;5026159;28;20534;-66
2022/01/18 10:19:33;;;;;;;19.92;4.65;;;;;;;4.14;60.05;101939.75;5019689;27;20033;-69
2022/01/18 10:22:29;;;;;;;30.55;5.80;;;;;;;4.04;60.70;101944.53;5024927;27;20114;-69
2022/01/18 10:24:55;;;;;;;16.05;3.78;;;;;;;4.05;60.65;101943.59;5037415;27;20038;-70
2022/01/18 10:27:20;;;;;;;17.35;3.58;;;;;;;4.12;60.14;101939.81;5019232;27;20045;-69
2022/01/18 10:29:49;;;;;;;18.58;3.83;;;;;;;4.07;60.99;101935.59;5027022;27;20037;-70
2022/01/18 10:32:20;;;;;;;14.40;3.55;;;;;;;4.10;60.81;101938.13;5027569;27;20044;-70
2022/01/18 10:37:19;;;;;;;15.43;4.22;;;;;;;4.14;60.42;101943.28;5013957;28;20424;-70
2022/01/18 10:39:50;;;;;;;13.07;3.45;;;;;;;4.19;60.83;101932.47;5024355;28;20412;-71
2022/01/18 10:42:29;;;;;;;14.60;3.60;;;;;;;4.28;59.77;101935.69;5010284;28;20029;-70
2022/01/18 10:45:03;;;;;;;30.73;5.60;;;;;;;4.29;60.25;101929.44;5013678;27;20045;-70
2022/01/18 10:47:29;;;;;;;12.52;3.58;;;;;;;4.32;59.62;101916.06;5013449;27;20030;-71
2022/01/18 10:49:55;;;;;;;39.05;5.70;;;;;;;4.38;59.53;101922.91;5013118;28;20074;-70
2022/01/18 10:52:28;;;;;;;15.05;3.08;;;;;;;4.54;58.47;101919.66;5054903;27;20045;-71
2022/01/18 10:54:58;;;;;;;15.10;3.80;;;;;;;4.55;58.42;101926.69;5019814;28;20386;-70
2022/01/18 10:57:41;;;;;;;31.88;5.45;;;;;;;4.56;58.36;101932.88;5028137;28;20278;-70
2022/01/18 11:00:21;;;;;;;48.45;7.32;;;;;;;4.62;57.85;101930.84;5022701;28;20039;-70
2022/01/18 11:02:56;;;;;;;48.65;7.43;;;;;;;4.58;57.70;101915.94;5022788;28;20049;-71
2022/01/18 11:05:29;;;;;;;16.60;4.63;;;;;;;4.60;57.95;101919.41;5057803;27;20052;-70
2022/01/18 11:07:56;;;;;;;34.72;5.35;;;;;;;4.60;58.31;101911.44;5017943;28;20034;-70
2022/01/18 11:10:32;;;;;;;72.50;7.65;;;;;;;4.56;58.58;101907.19;5026166;28;20393;-71
2022/01/18 11:13:10;;;;;;;25.42;4.28;;;;;;;4.63;58.31;101916.66;5028191;28;20040;-70
2022/01/18 11:15:39;;;;;;;11.50;3.22;;;;;;;4.67;58.41;101923.56;5027999;28;20042;-71
2022/01/18 11:18:14;;;;;;;58.75;7.65;;;;;;;4.70;58.32;101936.75;5028066;28;20435;-71
2022/01/18 11:20:43;;;;;;;16.13;3.20;;;;;;;4.77;57.07;101934.69;5014452;28;20486;-71
2022/01/18 11:23:09;;;;;;;10.60;3.60;;;;;;;4.76;57.17;101927.66;5020420;27;20114;-71
2022/01/18 11:25:36;;;;;;;14.52;2.80;;;;;;;4.78;57.13;101937.31;5011567;27;20084;-70
2022/01/18 11:28:04;;;;;;;16.85;3.78;;;;;;;4.81;56.90;101928.38;5010884;27;20033;-71
2022/01/18 11:30:40;;;;;;;9.02;2.65;;;;;;;4.81;56.83;101939.00;5063619;27;20052;-71
2022/01/18 11:33:10;;;;;;;9.43;3.05;;;;;;;4.86;57.29;101950.31;5014491;27;20033;-70
2022/01/18 11:35:44;;;;;;;12.75;3.38;;;;;;;4.95;56.54;101952.63;5026137;27;20048;-71
2022/01/18 11:38:23;;;;;;;8.73;3.75;;;;;;;4.98;56.14;101944.53;5007797;27;20037;-71
2022/01/18 11:40:55;;;;;;;11.23;3.60;;;;;;;4.95;56.40;101949.97;5011307;27;20030;-71
2022/01/18 11:43:34;;;;;;;12.55;3.72;;;;;;;4.91;57.41;101942.16;5018514;28;20074;-70
2022/01/18 11:46:00;;;;;;;8.88;3.15;;;;;;;4.99;56.53;101954.22;5016127;28;20109;-70
2022/01/18 11:48:25;;;;;;;7.40;3.17;;;;;;;5.00;56.72;101961.25;5021145;28;20116;-70
2022/01/18 11:51:08;;;;;;;11.05;2.97;;;;;;;4.95;56.55;101949.97;5023382;28;20018;-70
2022/01/18 11:53:46;;;;;;;12.45;3.47;;;;;;;5.06;56.52;101960.19;5011552;27;20060;-70
2022/01/18 11:56:32;;;;;;;10.85;3.25;;;;;;;5.06;56.76;101957.53;5020025;27;20370;-70
2022/01/18 11:59:17;;;;;;;11.65;3.25;;;;;;;5.07;56.71;101957.47;5020793;28;20036;-70
2022/01/18 12:01:49;;;;;;;12.65;2.97;;;;;;;5.19;55.84;101961.44;5020584;28;20033;-71
2022/01/18 12:07:06;;;;;;;15.80;3.15;;;;;;;5.17;55.83;101968.59;5021354;28;20128;-71
2022/01/18 12:09:38;;;;;;;12.30;3.47;;;;;;;5.20;55.52;101980.00;5009354;28;20466;-71
2022/01/18 12:12:24;;;;;;;13.93;3.42;;;;;;;5.15;55.57;101971.31;5015041;28;20456;-71
2022/01/18 12:14:50;;;;;;;15.27;4.07;;;;;;;5.16;56.01;101958.91;5020117;28;20057;-70
2022/01/18 12:17:15;;;;;;;12.65;3.40;;;;;;;5.20;55.81;101968.47;5008071;28;20087;-71
2022/01/18 12:19:47;;;;;;;11.30;3.38;;;;;;;5.23;56.60;101968.34;5014923;28;20025;-71
2022/01/18 12:22:13;;;;;;;12.05;3.35;;;;;;;5.35;55.73;101967.88;5013952;27;20027;-71
2022/01/18 12:24:44;;;;;;;10.93;3.85;;;;;;;5.37;55.96;101963.34;5016759;28;20040;-70
2022/01/18 12:27:31;;;;;;;8.25;3.35;;;;;;;5.35;56.14;101962.56;5025055;27;20086;-71
2022/01/18 12:30:25;;;;;;;12.48;3.90;;;;;;;5.52;54.89;101966.28;5023877;28;20062;-71
2022/01/18 12:33:19;;;;;;;11.90;3.92;;;;;;;5.45;55.29;101967.41;5040194;27;20061;-70
2022/01/18 12:35:45;;;;;;;8.13;3.42;;;;;;;5.50;55.20;101965.44;5035656;27;20057;-71
2022/01/18 12:38:31;;;;;;;14.13;3.65;;;;;;;5.53;55.26;101970.66;5024554;28;20405;-71
2022/01/18 12:40:56;;;;;;;7.20;3.05;;;;;;;5.40;55.58;101961.44;5026374;27;20136;-71
2022/01/18 12:49:32;;;;;;;12.45;3.60;;;;;;;5.56;54.96;101973.19;5068321;22;20075;-67
2022/01/18 12:51:59;;;;;;;13.18;3.90;;;;;;;5.55;55.32;101966.13;5101828;28;20475;-67